createdAt,value
2022-11-17T00:00:33.094Z,4.80
2022-11-17T00:06:07.595Z,5.57
2022-11-17T00:11:57.473Z,4.18
2022-11-17T00:17:28.789Z,4.35
2022-11-17T00:22:59.863Z,4.57
2022-11-17T00:28:30.996Z,4.80
2022-11-17T00:34:07.834Z,4.10
2022-11-17T00:39:40.436Z,4.53
2022-11-17T00:45:11.758Z,4.95
2022-11-17T00:50:42.893Z,5.47
2022-11-17T00:56:14.099Z,4.07
2022-11-17T01:01:45.275Z,3.85
2022-11-17T01:07:16.566Z,5.03
2022-11-17T01:12:47.919Z,4.68
2022-11-17T01:18:18.778Z,4.25
2022-11-17T01:23:51.210Z,3.88
2022-11-17T01:29:22.270Z,3.75
2022-11-17T01:34:53.666Z,5.03
2022-11-17T01:40:24.745Z,4.35
2022-11-17T01:46:00.718Z,3.60
2022-11-17T01:51:33.949Z,4.80
2022-11-17T01:57:28.382Z,4.90
2022-11-17T02:03:00.010Z,6.25
2022-11-17T02:08:33.213Z,5.00
2022-11-17T02:14:05.701Z,4.93
2022-11-17T02:19:42.481Z,4.47
2022-11-17T02:25:16.435Z,3.80
2022-11-17T02:31:02.557Z,3.83
2022-11-17T02:36:56.338Z,2.95
2022-11-17T02:42:50.481Z,3.22
2022-11-17T02:48:28.675Z,4.32
2022-11-17T02:54:00.341Z,4.00
2022-11-17T02:59:35.120Z,3.95
2022-11-17T03:05:21.331Z,3.47
2022-11-17T03:10:57.893Z,3.92
2022-11-17T03:16:59.558Z,4.00
2022-11-17T03:22:33.929Z,4.78
2022-11-17T03:28:08.175Z,3.42
2022-11-17T03:33:41.096Z,3.13
2022-11-17T03:39:18.190Z,3.23
2022-11-17T03:44:51.954Z,3.47
2022-11-17T03:50:32.433Z,3.67
2022-11-17T03:56:15.311Z,3.33
2022-11-17T04:01:46.473Z,2.92
2022-11-17T04:07:17.927Z,3.28
2022-11-17T04:13:08.268Z,3.35
2022-11-17T04:18:39.432Z,3.72
2022-11-17T04:24:10.452Z,3.25
2022-11-17T04:29:41.740Z,3.72
2022-11-17T04:35:12.687Z,3.40
2022-11-17T04:41:04.036Z,3.67
2022-11-17T04:46:37.534Z,3.97
2022-11-17T04:52:08.592Z,3.20
2022-11-17T04:57:39.540Z,3.78
2022-11-17T05:03:10.913Z,5.80
2022-11-17T05:08:42.446Z,3.95
2022-11-17T05:14:15.928Z,4.68
2022-11-17T05:19:48.401Z,2.95
2022-11-17T05:25:19.514Z,3.13
2022-11-17T05:30:50.785Z,5.85
2022-11-17T05:36:23.215Z,4.30
2022-11-17T05:41:54.465Z,3.90
2022-11-17T05:47:25.758Z,4.07
2022-11-17T05:52:56.935Z,4.85
2022-11-17T05:58:30.374Z,3.97
2022-11-17T06:04:03.650Z,6.47
2022-11-17T06:09:37.026Z,4.25
2022-11-17T06:15:08.229Z,4.63
2022-11-17T06:20:42.178Z,4.85
2022-11-17T06:26:13.926Z,4.88
2022-11-17T06:31:45.568Z,5.53
2022-11-17T06:37:16.656Z,5.97
2022-11-17T06:43:06.344Z,5.13
2022-11-17T06:48:38.223Z,4.25
2022-11-17T06:54:10.882Z,4.63
2022-11-17T06:59:41.742Z,4.85
2022-11-17T07:05:13.112Z,4.50
2022-11-17T07:10:49.149Z,3.85
2022-11-17T07:16:23.787Z,4.35
2022-11-17T07:27:25.922Z,4.53
2022-11-17T07:33:00.139Z,4.90
2022-11-17T07:38:34.041Z,4.78
2022-11-17T07:44:05.618Z,6.28
2022-11-17T07:49:36.844Z,5.32
2022-11-17T07:55:08.501Z,5.78
2022-11-17T08:00:39.605Z,5.43
2022-11-17T08:06:11.461Z,5.03
2022-11-17T08:11:42.427Z,5.35
2022-11-17T08:17:13.564Z,4.82
2022-11-17T08:22:44.737Z,5.60
2022-11-17T08:28:15.591Z,6.00
2022-11-17T08:33:46.472Z,5.75
2022-11-17T08:39:17.368Z,7.18
2022-11-17T08:44:48.331Z,7.25
2022-11-17T08:50:21.060Z,6.05
2022-11-17T08:55:52.815Z,5.68
2022-11-17T09:01:24.196Z,6.25
2022-11-17T09:06:55.806Z,6.90
2022-11-17T09:12:27.192Z,5.97
2022-11-17T09:17:58.272Z,6.55
2022-11-17T09:23:30.063Z,6.03
2022-11-17T09:29:03.327Z,6.43
2022-11-17T09:34:34.526Z,6.13
2022-11-17T09:40:07.231Z,6.45
2022-11-17T09:45:39.137Z,6.20
2022-11-17T09:51:14.511Z,5.72
2022-11-17T09:56:46.988Z,7.57
2022-11-17T10:02:18.136Z,6.55
2022-11-17T10:07:51.213Z,6.40
2022-11-17T10:13:25.675Z,7.87
2022-11-17T10:18:57.555Z,6.22
2022-11-17T10:24:34.927Z,7.43
2022-11-17T10:30:11.987Z,6.03
2022-11-17T10:35:54.631Z,7.43
2022-11-17T10:41:29.565Z,5.70
2022-11-17T10:47:07.445Z,7.13
2022-11-17T10:52:38.636Z,7.00
2022-11-17T10:58:27.997Z,7.05
2022-11-17T11:03:59.426Z,7.53
2022-11-17T11:09:31.148Z,6.30
2022-11-17T11:15:03.558Z,8.18
2022-11-17T11:21:12.665Z,5.88
2022-11-17T11:27:15.096Z,7.47
2022-11-17T11:32:58.659Z,6.93
2022-11-17T11:39:02.082Z,7.03
2022-11-17T11:44:54.846Z,8.75
2022-11-17T11:50:28.137Z,6.65
2022-11-17T11:56:23.594Z,6.60
2022-11-17T12:02:25.083Z,6.13
2022-11-17T12:08:10.356Z,7.45
2022-11-17T12:13:48.483Z,6.53
2022-11-17T12:19:44.593Z,5.97
2022-11-17T12:25:30.716Z,6.68
2022-11-17T12:31:24.583Z,6.70
2022-11-17T12:37:16.849Z,5.57
2022-11-17T12:43:15.924Z,6.22
2022-11-17T12:48:57.025Z,5.40
2022-11-17T12:54:41.226Z,5.20
2022-11-17T13:00:15.460Z,5.30
2022-11-17T13:06:28.289Z,5.70
2022-11-17T13:12:02.218Z,4.80
2022-11-17T13:17:40.420Z,4.75
2022-11-17T13:23:23.801Z,4.65
2022-11-17T13:29:06.860Z,5.07
2022-11-17T13:34:58.069Z,4.43
2022-11-17T13:40:30.164Z,4.50
2022-11-17T13:46:04.263Z,5.32
2022-11-17T13:51:39.429Z,3.97
2022-11-17T13:57:30.273Z,5.05
2022-11-17T14:03:05.627Z,4.65
2022-11-17T14:08:37.897Z,4.80
2022-11-17T14:14:13.567Z,4.63
2022-11-17T14:19:44.759Z,4.47
2022-11-17T14:25:15.881Z,3.78
2022-11-17T14:30:51.212Z,4.25
2022-11-17T14:36:22.671Z,4.70
2022-11-17T14:41:54.039Z,5.38
2022-11-17T14:47:24.935Z,3.92
2022-11-17T14:52:56.175Z,4.82
2022-11-17T14:58:27.279Z,4.57
2022-11-17T15:04:06.994Z,3.47
2022-11-17T15:09:47.206Z,5.00
2022-11-17T15:15:18.405Z,4.60
2022-11-17T15:21:02.732Z,4.30
2022-11-17T15:32:06.067Z,5.72
2022-11-17T15:37:37.365Z,5.78
2022-11-17T15:43:08.509Z,4.82
2022-11-17T15:48:43.293Z,4.88
2022-11-17T15:54:19.931Z,7.07
2022-11-17T15:59:52.301Z,4.93
2022-11-17T16:05:23.676Z,5.07
2022-11-17T16:10:55.709Z,6.18
2022-11-17T16:16:29.144Z,5.35
2022-11-17T16:22:00.159Z,5.28
2022-11-17T16:27:33.057Z,5.43
2022-11-17T16:33:09.762Z,6.07
2022-11-17T16:38:55.066Z,5.07
2022-11-17T16:44:31.696Z,6.70
2022-11-17T16:50:04.148Z,5.63
2022-11-17T16:55:36.723Z,4.82
2022-11-17T17:01:17.204Z,5.32
2022-11-17T17:06:48.240Z,5.43
2022-11-17T17:12:19.335Z,5.35
2022-11-17T17:17:50.698Z,4.72
2022-11-17T17:23:22.016Z,5.93
2022-11-17T17:28:55.448Z,5.93
2022-11-17T17:34:26.615Z,5.55
2022-11-17T17:39:57.853Z,5.07
2022-11-17T17:45:29.630Z,6.13
2022-11-17T17:51:02.478Z,7.05
2022-11-17T17:56:34.047Z,5.80
2022-11-17T18:02:05.105Z,5.82
2022-11-17T18:07:36.326Z,5.45
2022-11-17T18:13:10.645Z,5.70
2022-11-17T18:18:42.394Z,5.57
2022-11-17T18:24:14.129Z,6.43
2022-11-17T18:29:45.501Z,5.15
2022-11-17T18:35:16.729Z,5.72
2022-11-17T18:40:47.697Z,6.05
2022-11-17T18:46:21.678Z,5.35
2022-11-17T18:51:53.242Z,4.72
2022-11-17T18:57:24.410Z,6.72
2022-11-17T19:02:55.500Z,7.10
2022-11-17T19:08:30.769Z,7.50
2022-11-17T19:14:04.337Z,6.80
2022-11-17T19:25:07.570Z,6.70
2022-11-17T19:30:38.976Z,6.70
2022-11-17T19:36:11.202Z,6.82
2022-11-17T19:41:42.274Z,7.32
2022-11-17T19:47:13.403Z,7.65
2022-11-17T19:52:45.037Z,6.68
2022-11-17T19:58:17.631Z,7.35
2022-11-17T20:03:49.190Z,7.20
2022-11-17T20:09:20.370Z,7.60
2022-11-17T20:14:51.723Z,7.45
2022-11-17T20:20:22.809Z,6.60
2022-11-17T20:25:53.878Z,7.00
2022-11-17T20:31:26.798Z,6.43
2022-11-17T20:36:57.892Z,8.43
2022-11-17T20:42:29.230Z,7.00
2022-11-17T20:48:00.280Z,7.18
2022-11-17T20:53:32.349Z,6.70
2022-11-17T20:59:03.695Z,6.90
2022-11-17T21:04:35.187Z,6.50
2022-11-17T21:10:06.752Z,6.20
2022-11-17T21:15:37.751Z,5.30
2022-11-17T21:21:09.259Z,6.20
2022-11-17T21:26:40.466Z,5.95
2022-11-17T21:32:11.654Z,6.00
2022-11-17T21:37:43.057Z,6.88
2022-11-17T21:43:14.547Z,6.75
2022-11-17T21:48:46.350Z,6.70
2022-11-17T21:54:17.440Z,5.75
2022-11-17T21:59:48.753Z,6.25
2022-11-17T22:05:19.816Z,6.75
2022-11-17T22:10:50.816Z,5.72
2022-11-17T22:16:21.617Z,5.78
2022-11-17T22:21:53.868Z,7.25
2022-11-17T22:27:26.657Z,5.57
2022-11-17T22:32:58.058Z,6.47
2022-11-17T22:38:30.590Z,6.28
2022-11-17T22:44:01.874Z,6.35
2022-11-17T22:49:33.309Z,9.15
2022-11-17T22:55:05.227Z,6.65
2022-11-17T23:00:36.456Z,7.57
2022-11-17T23:06:07.641Z,5.60
2022-11-17T23:11:39.178Z,6.28
2022-11-17T23:17:10.530Z,6.30
2022-11-17T23:22:42.647Z,6.20
2022-11-17T23:28:13.665Z,5.60
2022-11-17T23:33:46.642Z,6.60
2022-11-17T23:39:18.074Z,7.37
2022-11-17T23:44:50.046Z,5.95
2022-11-17T23:50:21.363Z,7.13
2022-11-17T23:55:56.507Z,7.18
